createdAt,value
2018-06-17T00:00:32.381Z,79.65
2018-06-17T00:02:25.317Z,79.27
2018-06-17T00:03:25.319Z,79.17
2018-06-17T00:05:18.233Z,79.36
2018-06-17T00:06:18.255Z,79.65
2018-06-17T00:08:11.190Z,79.36
2018-06-17T00:09:11.192Z,79.55
2018-06-17T00:11:04.103Z,79.17
2018-06-17T00:12:04.127Z,79.36
2018-06-17T00:13:57.062Z,79.65
2018-06-17T00:14:57.064Z,79.36
2018-06-17T00:16:49.979Z,79.75
2018-06-17T00:17:50.002Z,79.17
2018-06-17T00:19:42.937Z,79.36
2018-06-17T00:20:42.940Z,79.17
2018-06-17T00:22:35.874Z,79.07
2018-06-17T00:23:35.877Z,79.61
2018-06-17T00:25:28.792Z,79.61
2018-06-17T00:26:28.816Z,79.52
2018-06-17T00:28:21.749Z,79.17
2018-06-17T00:29:21.753Z,78.98
2018-06-17T00:31:14.663Z,78.94
2018-06-17T00:32:14.686Z,78.88
2018-06-17T00:34:07.630Z,79.52
2018-06-17T00:35:07.631Z,79.46
2018-06-17T00:37:00.550Z,79.17
2018-06-17T00:38:00.567Z,78.78
2018-06-17T00:39:53.500Z,79.17
2018-06-17T00:40:53.557Z,79.36
2018-06-17T00:42:46.439Z,79.27
2018-06-17T00:43:46.447Z,79.55
2018-06-17T00:45:39.353Z,79.27
2018-06-17T00:46:39.377Z,79.36
2018-06-17T00:48:32.309Z,78.59
2018-06-17T00:49:32.316Z,78.98
2018-06-17T00:51:25.231Z,78.21
2018-06-17T00:52:25.249Z,78.59
2018-06-17T00:54:18.183Z,78.11
2018-06-17T00:55:18.186Z,79.27
2018-06-17T00:57:11.102Z,79.17
2018-06-17T00:58:11.133Z,78.88
2018-06-17T01:00:04.059Z,78.30
2018-06-17T01:01:04.060Z,78.78
2018-06-17T01:02:57.006Z,78.21
2018-06-17T01:03:57.001Z,78.69
2018-06-17T01:05:49.919Z,78.21
2018-06-17T01:06:49.958Z,78.50
2018-06-17T01:08:42.873Z,78.98
2018-06-17T01:09:42.875Z,79.03
2018-06-17T01:11:35.799Z,79.22
2018-06-17T01:12:35.824Z,79.17
2018-06-17T01:14:28.759Z,78.98
2018-06-17T01:15:28.761Z,79.65
2018-06-17T01:17:21.671Z,80.42
2018-06-17T01:18:21.696Z,80.32
2018-06-17T01:20:14.631Z,80.13
2018-06-17T01:21:14.633Z,79.65
2018-06-17T01:23:07.548Z,79.07
2018-06-17T01:24:07.572Z,79.07
2018-06-17T01:26:00.506Z,79.55
2018-06-17T01:27:00.507Z,79.27
2018-06-17T01:28:53.446Z,79.46
2018-06-17T01:29:53.447Z,79.46
2018-06-17T01:31:46.377Z,79.17
2018-06-17T01:32:46.383Z,79.36
2018-06-17T01:34:39.358Z,79.27
2018-06-17T01:35:39.327Z,79.36
2018-06-17T01:37:32.248Z,79.27
2018-06-17T01:38:32.271Z,79.13
2018-06-17T01:40:25.209Z,79.52
2018-06-17T01:41:25.206Z,79.61
2018-06-17T01:43:18.119Z,79.52
2018-06-17T01:44:18.153Z,79.32
2018-06-17T01:46:11.079Z,80.28
2018-06-17T01:47:11.084Z,79.32
2018-06-17T01:49:04.026Z,80.47
2018-06-17T01:50:04.019Z,80.28
2018-06-17T01:51:56.935Z,80.38
2018-06-17T01:52:56.955Z,80.47
2018-06-17T01:54:49.889Z,80.76
2018-06-17T01:55:49.888Z,80.73
2018-06-17T01:57:42.801Z,80.66
2018-06-17T01:58:42.823Z,80.82
2018-06-17T02:00:35.757Z,80.73
2018-06-17T02:01:35.758Z,81.01
2018-06-17T02:03:28.673Z,81.01
2018-06-17T02:04:28.693Z,80.82
2018-06-17T02:06:21.627Z,81.30
2018-06-17T02:07:21.629Z,81.01
2018-06-17T02:09:14.560Z,81.30
2018-06-17T02:10:14.563Z,81.59
2018-06-17T02:12:07.477Z,81.68
2018-06-17T02:13:07.497Z,81.30
2018-06-17T02:15:00.431Z,81.49
2018-06-17T02:16:00.432Z,81.35
2018-06-17T02:17:53.346Z,81.97
2018-06-17T02:18:53.367Z,81.84
2018-06-17T02:20:46.311Z,81.84
2018-06-17T02:21:46.311Z,82.03
2018-06-17T02:23:39.229Z,81.93
2018-06-17T02:24:39.255Z,81.45
2018-06-17T02:26:32.237Z,81.45
2018-06-17T02:27:32.191Z,81.64
2018-06-17T02:29:25.101Z,81.84
2018-06-17T02:30:25.125Z,81.16
2018-06-17T02:32:18.065Z,81.64
2018-06-17T02:33:18.059Z,81.16
2018-06-17T02:35:10.996Z,81.16
2018-06-17T02:36:10.997Z,80.87
2018-06-17T02:38:03.908Z,81.07
2018-06-17T02:39:03.934Z,80.97
2018-06-17T02:40:56.874Z,80.78
2018-06-17T02:41:56.875Z,80.68
2018-06-17T02:43:49.787Z,80.78
2018-06-17T02:44:49.823Z,80.30
2018-06-17T02:46:42.741Z,80.30
2018-06-17T02:47:42.744Z,80.30
2018-06-17T02:49:35.656Z,80.01
2018-06-17T02:50:35.681Z,80.01
2018-06-17T02:52:28.615Z,79.49
2018-06-17T02:53:28.615Z,79.21
2018-06-17T02:55:21.528Z,79.11
2018-06-17T02:56:21.549Z,78.44
2018-06-17T02:58:14.487Z,79.01
2018-06-17T02:59:14.482Z,78.72
2018-06-17T03:01:07.412Z,78.78
2018-06-17T03:02:07.413Z,79.45
2018-06-17T03:04:00.328Z,79.64
2018-06-17T03:05:00.347Z,79.45
2018-06-17T03:06:53.280Z,79.26
2018-06-17T03:07:53.288Z,79.83
2018-06-17T03:09:46.195Z,79.83
2018-06-17T03:10:46.217Z,80.12
2018-06-17T03:12:39.145Z,79.99
2018-06-17T03:13:39.149Z,79.99
2018-06-17T03:15:32.059Z,79.93
2018-06-17T03:16:32.094Z,79.89
2018-06-17T03:18:25.013Z,80.27
2018-06-17T03:19:25.011Z,79.80
2018-06-17T03:21:17.927Z,80.08
2018-06-17T03:22:17.947Z,79.99
2018-06-17T03:24:10.878Z,80.18
2018-06-17T03:25:10.879Z,80.47
2018-06-17T03:27:03.810Z,80.47
2018-06-17T03:28:03.810Z,80.47
2018-06-17T03:29:56.719Z,80.08
2018-06-17T03:30:56.741Z,79.70
2018-06-17T03:32:49.670Z,79.60
2018-06-17T03:33:49.679Z,79.89
2018-06-17T03:35:42.584Z,79.22
2018-06-17T03:36:42.606Z,79.22
2018-06-17T03:38:35.541Z,79.64
2018-06-17T03:39:35.542Z,79.74
2018-06-17T03:41:28.453Z,80.03
2018-06-17T03:42:28.472Z,80.12
2018-06-17T03:44:21.404Z,80.12
2018-06-17T03:45:21.406Z,79.49
2018-06-17T03:47:14.352Z,78.96
2018-06-17T03:48:14.340Z,77.61
2018-06-17T03:50:07.249Z,76.98
2018-06-17T03:51:07.272Z,75.67
2018-06-17T03:53:00.215Z,72.67
2018-06-17T03:54:00.214Z,71.46
2018-06-17T03:55:53.122Z,68.99
2018-06-17T03:56:53.145Z,67.26
2018-06-17T03:58:46.083Z,66.20
2018-06-17T03:59:46.083Z,66.30
2018-06-17T04:01:38.997Z,66.39
2018-06-17T04:02:39.020Z,66.97
2018-06-17T04:04:31.958Z,65.46
2018-06-17T04:05:31.960Z,64.92
2018-06-17T04:07:24.886Z,64.47
2018-06-17T04:08:24.906Z,63.21
2018-06-17T04:10:17.889Z,61.25
2018-06-17T04:11:17.839Z,60.48
2018-06-17T04:13:10.779Z,59.55
2018-06-17T04:14:10.781Z,59.55
2018-06-17T04:16:03.759Z,58.58
2018-06-17T04:17:03.726Z,57.35
2018-06-17T04:18:56.671Z,56.51
2018-06-17T04:19:56.671Z,56.45
2018-06-17T04:21:49.605Z,55.31
2018-06-17T04:22:49.620Z,54.25
2018-06-17T04:24:42.560Z,53.09
2018-06-17T04:25:42.614Z,53.09
2018-06-17T04:27:35.489Z,53.31
2018-06-17T04:28:35.518Z,52.99
2018-06-17T04:30:28.461Z,53.74
2018-06-17T04:31:28.463Z,53.64
2018-06-17T04:33:21.403Z,55.33
2018-06-17T04:34:21.412Z,56.00
2018-06-17T04:36:14.329Z,57.14
2018-06-17T04:37:14.360Z,57.49
2018-06-17T04:39:07.303Z,59.00
2018-06-17T04:40:07.308Z,59.10
2018-06-17T04:42:00.229Z,60.61
2018-06-17T04:43:00.255Z,60.03
2018-06-17T04:44:54.191Z,60.68
2018-06-17T04:45:54.196Z,61.25
2018-06-17T04:47:47.112Z,61.80
2018-06-17T04:48:47.142Z,62.38
2018-06-17T04:50:40.076Z,62.99
2018-06-17T04:51:40.085Z,62.25
2018-06-17T04:53:32.998Z,59.52
2018-06-17T04:54:33.028Z,58.75
2018-06-17T04:56:25.964Z,57.23
2018-06-17T04:57:25.974Z,56.84
2018-06-17T04:59:18.909Z,56.20
2018-06-17T05:00:18.918Z,55.33
2018-06-17T05:02:11.834Z,53.93
2018-06-17T05:03:11.864Z,53.38
2018-06-17T05:05:04.806Z,51.40
2018-06-17T05:06:04.823Z,50.24
2018-06-17T05:07:57.733Z,48.54
2018-06-17T05:08:57.762Z,47.79
2018-06-17T05:10:50.719Z,45.70
2018-06-17T05:11:50.721Z,44.34
2018-06-17T05:13:43.651Z,44.27
2018-06-17T05:14:43.680Z,43.41
2018-06-17T05:16:36.627Z,43.22
2018-06-17T05:17:36.633Z,42.08
2018-06-17T05:19:29.580Z,41.98
2018-06-17T05:20:29.587Z,41.49
2018-06-17T05:22:22.514Z,40.62
2018-06-17T05:23:22.544Z,40.33
2018-06-17T05:25:15.499Z,41.88
2018-06-17T05:26:15.509Z,40.23
2018-06-17T05:28:08.433Z,41.47
2018-06-17T05:29:08.465Z,41.57
2018-06-17T05:31:01.412Z,41.67
2018-06-17T05:32:01.423Z,41.86
2018-06-17T05:33:54.415Z,41.72
2018-06-17T05:34:54.386Z,42.60
2018-06-17T05:36:47.337Z,43.23
2018-06-17T05:37:47.341Z,44.09
2018-06-17T05:39:40.298Z,44.84
2018-06-17T05:40:40.298Z,45.49
2018-06-17T05:42:33.226Z,47.41
2018-06-17T05:43:33.256Z,47.41
2018-06-17T05:45:26.208Z,49.22
2018-06-17T05:46:26.213Z,49.58
2018-06-17T05:48:19.138Z,49.90
2018-06-17T05:49:19.168Z,48.52
2018-06-17T05:51:12.117Z,49.02
2018-06-17T05:52:12.122Z,49.22
2018-06-17T05:54:05.047Z,49.90
2018-06-17T05:55:05.079Z,49.99
2018-06-17T05:56:58.020Z,49.29
2018-06-17T05:57:58.030Z,49.75
2018-06-17T05:59:50.953Z,49.85
2018-06-17T06:00:50.985Z,49.65
2018-06-17T06:02:43.933Z,49.68
2018-06-17T06:03:43.940Z,49.41
2018-06-17T06:05:36.886Z,47.99
2018-06-17T06:06:36.898Z,48.76
2018-06-17T06:08:29.822Z,47.72
2018-06-17T06:09:29.852Z,46.73
2018-06-17T06:11:22.829Z,47.14
2018-06-17T06:12:22.841Z,46.84
2018-06-17T06:14:15.773Z,46.94
2018-06-17T06:15:15.800Z,46.94
2018-06-17T06:17:08.755Z,45.98
2018-06-17T06:18:08.764Z,46.08
2018-06-17T06:20:01.693Z,46.46
2018-06-17T06:21:01.722Z,46.26
2018-06-17T06:22:54.676Z,45.32
2018-06-17T06:23:54.684Z,45.32
2018-06-17T06:25:47.613Z,44.84
2018-06-17T06:26:47.645Z,44.76
2018-06-17T06:28:40.593Z,44.26
2018-06-17T06:29:40.604Z,44.91
2018-06-17T06:31:33.560Z,45.68
2018-06-17T06:32:33.567Z,44.54
2018-06-17T06:34:26.496Z,44.93
2018-06-17T06:35:26.532Z,44.53
2018-06-17T06:37:19.498Z,45.03
2018-06-17T06:38:19.490Z,45.42
2018-06-17T06:40:12.423Z,44.93
2018-06-17T06:41:12.456Z,44.54
2018-06-17T06:43:05.640Z,43.70
2018-06-17T06:44:05.657Z,43.79
2018-06-17T06:45:58.588Z,43.70
2018-06-17T06:46:58.620Z,43.31
2018-06-17T06:48:51.577Z,43.99
2018-06-17T06:49:51.587Z,43.70
2018-06-17T06:51:44.558Z,42.82
2018-06-17T06:52:44.552Z,42.24
2018-06-17T06:54:37.483Z,43.31
2018-06-17T06:55:37.519Z,43.52
2018-06-17T06:57:30.488Z,42.24
2018-06-17T06:58:30.485Z,43.31
2018-06-17T07:00:23.442Z,43.31
2018-06-17T07:01:23.475Z,42.94
2018-06-17T07:03:16.432Z,41.86
2018-06-17T07:04:16.442Z,42.85
2018-06-17T07:06:09.378Z,42.34
2018-06-17T07:07:09.411Z,43.02
2018-06-17T07:09:02.374Z,42.92
2018-06-17T07:10:02.400Z,41.95
2018-06-17T07:11:55.341Z,42.90
2018-06-17T07:12:55.352Z,42.72
2018-06-17T07:14:48.286Z,41.97
2018-06-17T07:15:48.320Z,42.75
2018-06-17T07:17:41.284Z,42.09
2018-06-17T07:18:41.299Z,41.89
2018-06-17T07:20:34.238Z,39.95
2018-06-17T07:21:34.270Z,41.31
2018-06-17T07:23:27.230Z,40.33
2018-06-17T07:24:27.241Z,40.13
2018-06-17T07:26:20.177Z,40.52
2018-06-17T07:27:20.210Z,41.30
2018-06-17T07:29:13.169Z,41.39
2018-06-17T07:30:13.180Z,41.10
2018-06-17T07:32:06.124Z,41.58
2018-06-17T07:33:06.153Z,41.39
2018-06-17T07:34:59.110Z,40.52
2018-06-17T07:35:59.117Z,38.96
2018-06-17T07:37:52.072Z,40.11
2018-06-17T07:38:52.079Z,40.89
2018-06-17T07:40:45.013Z,40.67
2018-06-17T07:41:45.045Z,41.74
2018-06-17T07:43:38.007Z,41.64
2018-06-17T07:44:38.007Z,42.22
2018-06-17T07:46:30.930Z,42.30
2018-06-17T07:47:30.960Z,42.30
2018-06-17T07:49:23.953Z,42.86
2018-06-17T07:50:23.919Z,43.15
2018-06-17T07:52:16.842Z,43.34
2018-06-17T07:53:16.870Z,42.88
2018-06-17T07:55:09.823Z,42.49
2018-06-17T07:56:09.828Z,42.08
2018-06-17T07:58:02.777Z,43.05
2018-06-17T07:59:02.787Z,42.66
2018-06-17T08:00:55.712Z,42.65
2018-06-17T08:01:55.739Z,42.74
2018-06-17T08:03:48.815Z,43.59
2018-06-17T08:04:48.822Z,44.07
2018-06-17T08:06:41.745Z,43.68
2018-06-17T08:07:41.779Z,43.98
2018-06-17T08:09:34.724Z,44.46
2018-06-17T08:10:34.725Z,43.88
2018-06-17T08:12:27.648Z,43.41
2018-06-17T08:13:27.677Z,43.51
2018-06-17T08:15:20.622Z,43.23
2018-06-17T08:16:20.631Z,43.32
2018-06-17T08:18:13.578Z,43.49
2018-06-17T08:19:13.583Z,43.90
2018-06-17T08:21:06.503Z,43.61
2018-06-17T08:22:06.530Z,43.03
2018-06-17T08:23:59.471Z,43.13
2018-06-17T08:24:59.481Z,43.99
2018-06-17T08:26:52.405Z,42.91
2018-06-17T08:27:52.431Z,43.10
2018-06-17T08:29:45.377Z,44.07
2018-06-17T08:30:45.385Z,43.98
2018-06-17T08:32:38.307Z,43.10
2018-06-17T08:33:38.336Z,43.68
2018-06-17T08:35:31.279Z,43.28
2018-06-17T08:36:31.292Z,42.89
2018-06-17T08:38:24.208Z,43.85
2018-06-17T08:39:24.237Z,44.07
2018-06-17T08:41:17.191Z,43.49
2018-06-17T08:42:17.206Z,43.20
2018-06-17T08:44:10.146Z,43.59
2018-06-17T08:45:10.151Z,44.17
2018-06-17T08:47:03.069Z,44.26
2018-06-17T08:48:03.099Z,43.01
2018-06-17T08:49:56.042Z,43.59
2018-06-17T08:50:56.049Z,42.91
2018-06-17T08:52:48.974Z,43.20
2018-06-17T08:53:49.006Z,43.68
2018-06-17T08:55:41.948Z,43.40
2018-06-17T08:56:41.953Z,44.07
2018-06-17T08:58:34.883Z,43.03
2018-06-17T08:59:34.906Z,43.13
2018-06-17T09:01:27.857Z,43.32
2018-06-17T09:02:27.866Z,42.74
2018-06-17T09:04:20.797Z,42.96
2018-06-17T09:05:20.825Z,43.73
2018-06-17T09:07:13.820Z,42.66
2018-06-17T09:08:13.829Z,41.99
2018-06-17T09:10:06.793Z,43.03
2018-06-17T09:11:06.786Z,43.23
2018-06-17T09:12:59.712Z,43.32
2018-06-17T09:13:59.740Z,43.54
2018-06-17T09:15:52.818Z,42.47
2018-06-17T09:16:52.822Z,41.99
2018-06-17T09:18:45.750Z,42.08
2018-06-17T09:19:45.788Z,42.08
2018-06-17T09:21:38.732Z,41.70
2018-06-17T09:22:38.735Z,42.08
2018-06-17T09:24:31.690Z,42.65
2018-06-17T09:25:31.712Z,42.65
2018-06-17T09:27:24.656Z,43.03
2018-06-17T09:28:24.676Z,43.10
2018-06-17T09:30:17.609Z,43.41
2018-06-17T09:31:17.618Z,43.01
2018-06-17T09:33:10.544Z,44.09
2018-06-17T09:34:10.573Z,43.23
2018-06-17T09:36:03.525Z,42.45
2018-06-17T09:37:03.526Z,42.07
2018-06-17T09:38:56.449Z,42.28
2018-06-17T09:39:56.483Z,42.28
2018-06-17T09:41:50.504Z,42.18
2018-06-17T09:42:49.488Z,41.89
2018-06-17T09:44:42.416Z,42.08
2018-06-17T09:45:42.448Z,42.28
2018-06-17T09:47:35.390Z,41.82
2018-06-17T09:48:35.398Z,41.99
2018-06-17T09:50:28.340Z,42.10
2018-06-17T09:51:28.366Z,42.10
2018-06-17T09:53:21.311Z,41.70
2018-06-17T09:54:21.320Z,41.21
2018-06-17T09:56:14.263Z,41.41
2018-06-17T09:57:14.273Z,41.99
2018-06-17T09:59:07.206Z,42.66
2018-06-17T10:00:07.224Z,42.18
2018-06-17T10:02:00.185Z,42.08
2018-06-17T10:03:00.177Z,42.66
2018-06-17T10:04:53.102Z,42.47
2018-06-17T10:05:53.130Z,42.40
2018-06-17T10:07:46.075Z,42.40
2018-06-17T10:08:46.138Z,42.30
2018-06-17T10:10:39.017Z,41.91
2018-06-17T10:11:39.037Z,41.24
2018-06-17T10:13:31.984Z,42.10
2018-06-17T10:14:31.992Z,41.62
2018-06-17T10:16:24.920Z,41.72
2018-06-17T10:17:24.944Z,41.93
2018-06-17T10:19:17.897Z,41.93
2018-06-17T10:20:17.900Z,41.35
2018-06-17T10:22:10.852Z,41.91
2018-06-17T10:23:10.856Z,41.41
2018-06-17T10:25:03.782Z,42.93
2018-06-17T10:26:03.809Z,43.13
2018-06-17T10:27:56.754Z,42.83
2018-06-17T10:28:56.762Z,42.83
2018-06-17T10:30:49.688Z,44.09
2018-06-17T10:31:49.716Z,43.24
2018-06-17T10:33:42.669Z,42.47
2018-06-17T10:34:42.670Z,41.99
2018-06-17T10:36:35.598Z,42.76
2018-06-17T10:37:35.622Z,42.47
2018-06-17T10:39:28.568Z,42.97
2018-06-17T10:40:28.575Z,42.10
2018-06-17T10:42:21.505Z,40.25
2018-06-17T10:43:21.624Z,41.87
2018-06-17T10:45:14.793Z,42.16
2018-06-17T10:46:14.486Z,43.44
2018-06-17T10:48:07.412Z,42.18
2018-06-17T10:49:07.440Z,42.55
2018-06-17T10:51:00.390Z,42.25
2018-06-17T10:52:00.422Z,42.83
2018-06-17T10:53:53.336Z,42.62
2018-06-17T10:54:53.350Z,42.43
2018-06-17T10:56:46.583Z,42.91
2018-06-17T10:57:46.607Z,43.59
2018-06-17T10:59:39.590Z,43.85
2018-06-17T11:00:39.559Z,43.95
2018-06-17T11:02:32.531Z,42.82
2018-06-17T11:03:32.550Z,43.59
2018-06-17T11:05:25.572Z,42.91
2018-06-17T11:06:26.204Z,43.68
2018-06-17T11:08:18.956Z,42.83
2018-06-17T11:09:19.029Z,42.45
2018-06-17T11:11:11.690Z,42.25
2018-06-17T11:12:11.725Z,42.66
2018-06-17T11:14:04.624Z,42.66
2018-06-17T11:15:04.663Z,42.28
2018-06-17T11:16:58.428Z,42.76
2018-06-17T11:17:57.842Z,42.28
2018-06-17T11:19:50.766Z,42.86
2018-06-17T11:20:50.799Z,42.18
2018-06-17T11:22:43.746Z,42.18
2018-06-17T11:23:43.748Z,40.42
2018-06-17T11:25:36.722Z,41.77
2018-06-17T11:26:36.724Z,42.35
2018-06-17T11:28:29.627Z,42.45
2018-06-17T11:29:29.655Z,42.65
2018-06-17T11:31:22.600Z,42.93
2018-06-17T11:32:22.608Z,43.01
2018-06-17T11:34:15.541Z,43.20
2018-06-17T11:35:15.564Z,43.78
2018-06-17T11:37:16.072Z,44.26
2018-06-17T11:38:08.518Z,43.59
2018-06-17T11:40:01.442Z,43.01
2018-06-17T11:41:01.469Z,43.23
2018-06-17T11:42:54.426Z,43.23
2018-06-17T11:43:54.430Z,43.13
2018-06-17T11:45:47.376Z,43.41
2018-06-17T11:46:47.384Z,43.71
2018-06-17T11:48:40.307Z,43.13
2018-06-17T11:49:40.334Z,43.71
2018-06-17T11:51:33.288Z,42.83
2018-06-17T11:52:33.288Z,42.93
2018-06-17T11:54:26.213Z,43.23
2018-06-17T11:55:26.239Z,42.74
2018-06-17T11:57:19.373Z,41.99
2018-06-17T11:58:19.382Z,42.47
2018-06-17T12:00:12.305Z,42.55
2018-06-17T12:01:12.333Z,42.04
2018-06-17T12:03:05.283Z,43.01
2018-06-17T12:04:05.286Z,43.30
2018-06-17T12:05:58.206Z,44.17
2018-06-17T12:06:58.237Z,43.30
2018-06-17T12:08:51.178Z,43.66
2018-06-17T12:09:51.184Z,43.85
2018-06-17T12:11:44.136Z,44.73
2018-06-17T12:12:44.139Z,44.34
2018-06-17T12:14:37.070Z,44.56
2018-06-17T12:15:37.098Z,44.46
2018-06-17T12:17:30.043Z,43.20
2018-06-17T12:18:30.048Z,43.88
2018-06-17T12:20:22.977Z,43.88
2018-06-17T12:21:23.007Z,43.88
2018-06-17T12:23:15.956Z,43.40
2018-06-17T12:24:15.957Z,43.30
2018-06-17T12:26:08.883Z,44.19
2018-06-17T12:27:08.911Z,43.71
2018-06-17T12:29:01.875Z,43.32
2018-06-17T12:30:01.865Z,43.23
2018-06-17T12:31:54.795Z,42.16
2018-06-17T12:32:54.824Z,43.01
2018-06-17T12:34:47.777Z,43.23
2018-06-17T12:35:47.791Z,42.93
2018-06-17T12:37:40.725Z,42.55
2018-06-17T12:38:40.730Z,42.35
2018-06-17T12:40:33.672Z,41.85
2018-06-17T12:41:33.700Z,43.30
2018-06-17T12:43:26.845Z,44.07
2018-06-17T12:44:26.853Z,43.88
2018-06-17T12:46:19.820Z,42.91
2018-06-17T12:47:19.806Z,43.08
2018-06-17T12:49:12.748Z,43.57
2018-06-17T12:50:12.757Z,43.57
2018-06-17T12:52:05.728Z,44.43
2018-06-17T12:53:05.768Z,44.15
2018-06-17T12:54:58.649Z,43.18
2018-06-17T12:55:58.668Z,43.20
2018-06-17T12:57:51.700Z,42.07
2018-06-17T12:58:51.669Z,42.45
2018-06-17T13:00:44.545Z,42.07
2018-06-17T13:01:44.573Z,41.87
2018-06-17T13:03:37.623Z,40.52
2018-06-17T13:04:37.602Z,41.67
2018-06-17T13:06:30.448Z,41.77
2018-06-17T13:07:30.476Z,41.48
2018-06-17T13:09:23.428Z,42.25
2018-06-17T13:10:23.428Z,41.67
2018-06-17T13:12:16.354Z,42.24
2018-06-17T13:13:16.383Z,42.25
2018-06-17T13:15:09.335Z,42.04
2018-06-17T13:16:09.338Z,42.07
2018-06-17T13:18:02.283Z,42.18
2018-06-17T13:19:02.294Z,41.60
2018-06-17T13:20:55.217Z,41.02
2018-06-17T13:21:55.245Z,40.34
2018-06-17T13:23:48.190Z,39.67
2018-06-17T13:24:48.199Z,39.18
2018-06-17T13:26:41.123Z,39.47
2018-06-17T13:27:41.152Z,39.57
2018-06-17T13:29:34.094Z,40.05
2018-06-17T13:30:34.105Z,40.32
2018-06-17T13:32:27.030Z,40.52
2018-06-17T13:33:27.061Z,39.95
2018-06-17T13:35:20.006Z,39.84
2018-06-17T13:36:20.013Z,39.74
2018-06-17T13:38:12.936Z,40.59
2018-06-17T13:39:12.961Z,41.85
2018-06-17T13:41:05.906Z,40.59
2018-06-17T13:42:05.914Z,41.46
2018-06-17T13:43:58.858Z,42.14
2018-06-17T13:44:58.865Z,42.24
2018-06-17T13:46:51.790Z,41.46
2018-06-17T13:47:51.816Z,41.36
2018-06-17T13:49:44.761Z,41.56
2018-06-17T13:50:44.766Z,41.94
2018-06-17T13:52:37.709Z,41.36
2018-06-17T13:53:37.736Z,41.66
2018-06-17T13:55:30.814Z,41.27
2018-06-17T13:56:30.821Z,41.08
2018-06-17T13:58:23.752Z,41.63
2018-06-17T13:59:23.777Z,41.73
2018-06-17T14:01:16.718Z,42.02
2018-06-17T14:02:16.729Z,41.54
2018-06-17T14:04:09.882Z,41.36
2018-06-17T14:05:09.875Z,41.93
2018-06-17T14:07:02.800Z,42.14
2018-06-17T14:08:02.828Z,42.04
2018-06-17T14:09:55.769Z,40.88
2018-06-17T14:10:55.778Z,41.44
2018-06-17T14:12:48.701Z,41.54
2018-06-17T14:13:48.731Z,41.15
2018-06-17T14:15:41.678Z,39.24
2018-06-17T14:16:41.680Z,39.51
2018-06-17T14:18:34.601Z,38.25
2018-06-17T14:19:34.631Z,38.04
2018-06-17T14:21:27.572Z,38.04
2018-06-17T14:22:27.580Z,38.25
2018-06-17T14:24:20.501Z,38.25
2018-06-17T14:25:20.530Z,39.12
2018-06-17T14:27:13.481Z,37.67
2018-06-17T14:28:13.483Z,37.29
2018-06-17T14:30:06.434Z,37.38
2018-06-17T14:31:06.434Z,38.25
2018-06-17T14:32:59.361Z,38.56
2018-06-17T14:33:59.389Z,37.88
2018-06-17T14:35:52.338Z,37.88
2018-06-17T14:36:52.355Z,37.13
2018-06-17T14:38:45.269Z,36.76
2018-06-17T14:39:45.296Z,36.28
2018-06-17T14:41:38.250Z,36.47
2018-06-17T14:42:38.251Z,36.76
2018-06-17T14:44:31.182Z,35.60
2018-06-17T14:45:31.213Z,39.18
2018-06-17T14:47:24.163Z,38.62
2018-06-17T14:48:24.165Z,38.70
2018-06-17T14:50:17.089Z,38.41
2018-06-17T14:51:17.117Z,39.37
2018-06-17T14:53:10.063Z,37.73
2018-06-17T14:54:10.072Z,38.02
2018-06-17T14:56:03.108Z,38.41
2018-06-17T14:57:03.116Z,38.21
2018-06-17T14:58:56.059Z,38.21
2018-06-17T14:59:56.069Z,38.81
2018-06-17T15:01:49.085Z,38.04
2018-06-17T15:02:49.021Z,38.12
2018-06-17T15:04:41.945Z,39.37
2018-06-17T15:05:41.974Z,38.43
2018-06-17T15:07:34.963Z,38.13
2018-06-17T15:08:35.073Z,37.75
2018-06-17T15:10:27.992Z,38.43
2018-06-17T15:11:28.023Z,37.48
2018-06-17T15:13:20.968Z,37.09
2018-06-17T15:14:21.010Z,36.40
2018-06-17T15:16:13.901Z,36.68
2018-06-17T15:17:13.928Z,37.07
2018-06-17T15:19:06.871Z,37.15
2018-06-17T15:20:06.892Z,39.09
2018-06-17T15:21:59.827Z,39.37
2018-06-17T15:22:59.833Z,39.18
2018-06-17T15:24:52.758Z,38.81
2018-06-17T15:25:52.786Z,37.85
2018-06-17T15:27:45.729Z,39.03
2018-06-17T15:28:45.739Z,37.48
2018-06-17T15:30:38.790Z,37.38
2018-06-17T15:31:38.820Z,37.19
2018-06-17T15:33:31.762Z,37.77
2018-06-17T15:34:31.772Z,37.69
2018-06-17T15:36:24.710Z,37.59
2018-06-17T15:37:24.723Z,37.67
2018-06-17T15:39:17.667Z,37.98
2018-06-17T15:40:17.674Z,37.21
2018-06-17T15:42:10.619Z,37.90
2018-06-17T15:43:10.632Z,38.19
2018-06-17T15:45:03.569Z,36.25
2018-06-17T15:46:03.597Z,36.27
2018-06-17T15:47:56.542Z,35.86
2018-06-17T15:48:56.560Z,35.86
2018-06-17T15:50:49.689Z,34.89
2018-06-17T15:51:49.685Z,35.35
2018-06-17T15:53:42.630Z,36.12
2018-06-17T15:54:42.642Z,36.41
2018-06-17T15:56:35.568Z,37.21
2018-06-17T15:57:35.595Z,36.60
2018-06-17T15:59:28.539Z,37.48
2018-06-17T16:00:28.547Z,37.09
2018-06-17T16:02:21.476Z,37.19
2018-06-17T16:03:21.505Z,37.36
2018-06-17T16:05:14.445Z,37.75
2018-06-17T16:06:14.453Z,37.36
2018-06-17T16:08:07.396Z,36.98
2018-06-17T16:09:07.406Z,37.65
2018-06-17T16:11:00.329Z,38.70
2018-06-17T16:12:00.358Z,38.02
2018-06-17T16:13:53.301Z,38.31
2018-06-17T16:14:53.310Z,39.09
2018-06-17T16:16:46.233Z,39.57
2018-06-17T16:17:46.262Z,39.57
2018-06-17T16:19:39.203Z,38.89
2018-06-17T16:20:39.213Z,39.18
2018-06-17T16:22:32.135Z,39.09
2018-06-17T16:23:32.164Z,38.99
2018-06-17T16:25:25.103Z,39.09
2018-06-17T16:26:25.116Z,39.09
2018-06-17T16:28:18.044Z,39.39
2018-06-17T16:29:18.073Z,39.01
2018-06-17T16:31:11.015Z,38.81
2018-06-17T16:32:11.023Z,38.64
2018-06-17T16:34:03.966Z,37.94
2018-06-17T16:35:03.977Z,38.13
2018-06-17T16:36:56.969Z,38.23
2018-06-17T16:37:56.944Z,38.81
2018-06-17T16:39:49.876Z,38.81
2018-06-17T16:40:49.880Z,39.18
2018-06-17T16:42:42.804Z,38.97
2018-06-17T16:43:42.833Z,39.26
2018-06-17T16:45:35.774Z,40.23
2018-06-17T16:46:35.784Z,40.78
2018-06-17T16:48:28.705Z,40.20
2018-06-17T16:49:28.732Z,40.50
2018-06-17T16:51:21.674Z,40.77
2018-06-17T16:52:21.681Z,41.46
2018-06-17T16:54:14.786Z,41.63
2018-06-17T16:55:14.776Z,41.93
2018-06-17T16:57:07.699Z,42.02
2018-06-17T16:58:07.727Z,42.02
2018-06-17T17:00:00.676Z,42.04
2018-06-17T17:01:00.685Z,41.83
2018-06-17T17:02:53.598Z,42.31
2018-06-17T17:03:53.629Z,41.83
2018-06-17T17:05:46.565Z,43.28
2018-06-17T17:06:46.574Z,42.70
2018-06-17T17:08:39.635Z,42.31
2018-06-17T17:09:39.665Z,43.76
2018-06-17T17:11:32.614Z,42.89
2018-06-17T17:12:32.615Z,42.02
2018-06-17T17:14:25.536Z,43.08
2018-06-17T17:15:25.566Z,43.08
2018-06-17T17:17:18.506Z,42.89
2018-06-17T17:18:18.513Z,42.14
2018-06-17T17:20:11.467Z,42.70
2018-06-17T17:21:11.476Z,42.21
2018-06-17T17:23:04.396Z,41.46
2018-06-17T17:24:04.448Z,42.43
2018-06-17T17:25:57.366Z,42.02
2018-06-17T17:26:57.437Z,42.21
2018-06-17T17:28:50.508Z,42.99
2018-06-17T17:29:50.534Z,43.10
2018-06-17T17:31:43.477Z,42.50
2018-06-17T17:32:43.485Z,43.18
2018-06-17T17:34:36.406Z,42.99
2018-06-17T17:35:36.436Z,43.47
2018-06-17T17:37:29.375Z,44.24
2018-06-17T17:38:29.384Z,44.15
2018-06-17T17:40:22.817Z,44.24
2018-06-17T17:41:22.824Z,44.24
2018-06-17T17:43:16.740Z,44.53
2018-06-17T17:44:16.767Z,44.32
2018-06-17T17:46:09.892Z,44.24
2018-06-17T17:47:09.901Z,44.73
2018-06-17T17:49:02.821Z,44.42
2018-06-17T17:50:02.851Z,44.43
2018-06-17T17:51:55.796Z,44.51
2018-06-17T17:52:55.802Z,44.70
2018-06-17T17:54:48.797Z,45.28
2018-06-17T17:55:48.921Z,44.78
2018-06-17T17:57:41.763Z,45.55
2018-06-17T17:58:41.876Z,45.75
2018-06-17T18:00:34.844Z,46.90
2018-06-17T18:01:34.753Z,46.81
2018-06-17T18:03:27.901Z,47.00
2018-06-17T18:04:27.933Z,46.81
2018-06-17T18:06:20.869Z,47.00
2018-06-17T18:07:20.878Z,46.61
2018-06-17T18:09:13.793Z,47.02
2018-06-17T18:10:13.827Z,46.61
2018-06-17T18:12:06.804Z,46.03
2018-06-17T18:13:06.768Z,47.00
2018-06-17T18:14:59.701Z,47.00
2018-06-17T18:15:59.720Z,46.61
2018-06-17T18:17:52.659Z,47.17
2018-06-17T18:18:52.660Z,47.65
2018-06-17T18:20:45.605Z,47.27
2018-06-17T18:21:45.606Z,47.17
2018-06-17T18:23:38.559Z,47.85
2018-06-17T18:24:38.550Z,48.52
2018-06-17T18:26:31.498Z,47.55
2018-06-17T18:27:31.498Z,48.42
2018-06-17T18:29:24.416Z,48.52
2018-06-17T18:30:24.443Z,47.94
2018-06-17T18:32:17.382Z,48.23
2018-06-17T18:33:17.392Z,48.52